Time;durP1;ratioP1;P1;durP2;ratioP2;P2;SDS_P1;SDS_P2;PMS_P1;PMS_P2;Temp;Humidity;BMP_temperature;BMP_pressure;BME280_temperature;BME280_humidity;BME280_pressure;Samples;Min_cycle;Max_cycle;Signal;HPM_P1;HPM_P2
2023/12/05 00:02:08;;;;;;;0.60;0.50;;;;;;;;;;4950924;29;20078;-93
2023/12/05 00:04:34;;;;;;;0.50;0.50;;;;;;;;;;4955152;29;20035;-93
2023/12/05 00:07:00;;;;;;;0.40;0.40;;;;;;;;;;4953741;29;20447;-92
2023/12/05 00:09:26;;;;;;;1.45;1.35;;;;;;;;;;4953777;28;20023;-92
2023/12/05 00:11:52;;;;;;;0.60;0.60;;;;;;;;;;4954989;29;20027;-93
2023/12/05 00:14:18;;;;;;;0.40;0.40;;;;;;;;;;4954677;29;20128;-92
2023/12/05 00:16:44;;;;;;;0.90;0.77;;;;;;;;;;4954803;29;20127;-93
2023/12/05 00:19:10;;;;;;;4.95;0.93;;;7.80;92.30;;;;;;4948400;29;20043;-92
2023/12/05 00:21:36;;;;;;;3.55;0.60;;;;;;;;;;4954388;29;20054;-92
2023/12/05 00:24:02;;;;;;;0.57;0.40;;;;;;;;;;4954568;29;20074;-93
2023/12/05 00:26:28;;;;;;;5.53;0.80;;;;;;;;;;4952447;29;20495;-91
2023/12/05 00:28:54;;;;;;;0.75;0.40;;;;;;;;;;4958199;29;20202;-93
2023/12/05 00:31:20;;;;;;;2.13;0.90;;;;;;;;;;4951064;28;20031;-91
2023/12/05 00:33:47;;;;;;;0.93;0.80;;;;;;;;;;4955447;29;20031;-93
2023/12/05 00:36:13;;;;;;;2.07;0.60;;;;;;;;;;4954940;29;20027;-93
2023/12/05 00:38:39;;;;;;;1.30;0.50;;;;;;;;;;4953863;29;20342;-92
2023/12/05 00:41:06;;;;;;;1.35;0.52;;;;;;;;;;4942603;29;20110;-92
2023/12/05 00:43:31;;;;;;;1.13;0.63;;;6.60;95.60;;;;;;4954006;29;20027;-92
2023/12/05 00:45:58;;;;;;;1.30;0.40;;;;;;;;;;4954206;29;20455;-92
2023/12/05 00:48:24;;;;;;;0.40;0.40;;;;;;;;;;4954006;29;20023;-92
2023/12/05 00:50:50;;;;;;;0.47;0.47;;;;;;;;;;4952132;29;20477;-92
2023/12/05 00:53:16;;;;;;;0.57;0.57;;;;;;;;;;4947129;29;20027;-92
2023/12/05 00:55:42;;;;;;;0.88;0.68;;;;;;;;;;4953874;29;20042;-92
2023/12/05 00:58:08;;;;;;;3.00;0.88;;;;;;;;;;4951754;29;20070;-92
2023/12/05 01:00:34;;;;;;;3.22;0.77;;;;;;;;;;4949608;29;20027;-93
2023/12/05 01:02:59;;;;;;;1.85;0.57;;;7.10;88.90;;;;;;4946685;29;20139;-92
2023/12/05 01:05:25;;;;;;;1.13;0.70;;;;;;;;;;4960015;28;20114;-92
2023/12/05 01:07:51;;;;;;;1.13;0.50;;;;;;;;;;4953974;29;20071;-92
2023/12/05 01:10:17;;;;;;;2.67;0.60;;;;;;;;;;4942458;29;20070;-92
2023/12/05 01:12:43;;;;;;;1.13;0.50;;;;;;;;;;4956015;29;20038;-92
2023/12/05 01:15:09;;;;;;;2.25;0.60;;;;;;;;;;4954556;29;20023;-92
2023/12/05 01:17:36;;;;;;;1.75;0.60;;;;;;;;;;4954042;29;20051;-93
2023/12/05 01:20:02;;;;;;;1.58;0.47;;;7.30;91.50;;;;;;4954249;28;20034;-93
2023/12/05 01:22:28;;;;;;;0.52;0.52;;;;;;;;;;4957818;29;20019;-92
2023/12/05 01:24:54;;;;;;;0.57;0.55;;;;;;;;;;4957051;29;20027;-92
2023/12/05 01:27:21;;;;;;;0.50;0.50;;;;;;;;;;4956943;29;20039;-92
2023/12/05 01:29:46;;;;;;;7.65;0.55;;;7.30;92.60;;;;;;4956705;29;20130;-93
2023/12/05 01:32:12;;;;;;;1.75;0.50;;;;;;;;;;4951042;28;20482;-93
2023/12/05 01:34:38;;;;;;;2.88;1.98;;;;;;;;;;4955989;29;20488;-92
2023/12/05 01:37:04;;;;;;;7.97;0.80;;;;;;;;;;4955819;29;20050;-92
2023/12/05 01:39:30;;;;;;;0.35;0.35;;;;;;;;;;4956822;29;20387;-92
2023/12/05 01:41:57;;;;;;;0.30;0.30;;;;;;;;;;4957464;29;20042;-93
2023/12/05 01:44:23;;;;;;;1.65;0.50;;;7.80;92.40;;;;;;4956872;29;20055;-92
2023/12/05 01:46:49;;;;;;;0.63;0.40;;;;;;;;;;4956949;29;20051;-92
2023/12/05 01:49:17;;;;;;;3.85;0.88;;;7.90;90.60;;;;;;4939928;29;20046;-93
2023/12/05 01:51:43;;;;;;;0.50;0.50;;;;;;;;;;4950322;29;20058;-92
2023/12/05 01:54:09;;;;;;;0.68;0.60;;;;;;;;;;4956863;29;20059;-93
2023/12/05 01:56:35;;;;;;;2.67;0.40;;;6.70;82.80;;;;;;4957029;29;20028;-92
2023/12/05 01:59:02;;;;;;;1.20;0.85;;;;;;;;;;4956903;29;20042;-93
2023/12/05 02:01:28;;;;;;;1.75;0.65;;;7.50;97.20;;;;;;4945429;29;20035;-92
2023/12/05 02:03:54;;;;;;;2.13;0.40;;;;;;;;;;4956001;29;20078;-93
2023/12/05 02:06:21;;;;;;;0.75;0.65;;;7.30;91.90;;;;;;4962361;28;20079;-92
2023/12/05 02:08:49;;;;;;;1.10;0.77;;;7.40;88.20;;;;;;4956510;29;20071;-92
2023/12/05 02:11:16;;;;;;;1.42;0.88;;;7.30;91.90;;;;;;4956320;29;20042;-92
2023/12/05 02:13:43;;;;;;;4.30;0.77;;;;;;;;;;4956389;29;20027;-92
2023/12/05 02:16:34;;;;;;;1.33;0.73;;;7.30;89.70;;;;;;4956518;29;20644;-92
2023/12/05 02:19:29;;;;;;;0.60;0.52;;;7.10;95.40;;;;;;4947790;29;20027;-92
2023/12/05 02:22:03;;;;;;;1.55;0.70;;;7.00;91.50;;;;;;4955732;29;20160;-93
2023/12/05 02:24:46;;;;;;;1.00;0.50;;;6.70;93.10;;;;;;4956624;29;20386;-93
2023/12/05 02:27:41;;;;;;;0.50;0.50;;;6.70;99.90;;;;;;4947832;28;20049;-93
2023/12/05 02:30:09;;;;;;;3.22;0.73;;;6.40;94.40;;;;;;4956433;28;20051;-93
2023/12/05 02:32:35;;;;;;;3.30;0.65;;;6.20;97.20;;;;;;4954951;28;20023;-93
2023/12/05 02:35:02;;;;;;;1.13;0.57;;;6.10;96.00;;;;;;4956692;29;20396;-93
2023/12/05 02:37:47;;;;;;;0.75;0.45;;;5.90;98.10;;;;;;4956027;28;20033;-93
2023/12/05 02:40:13;;;;;;;3.35;0.63;;;5.90;99.90;;;;;;4956411;29;20038;-93
2023/12/05 02:42:41;;;;;;;0.65;0.65;;;5.90;99.80;;;;;;4954861;29;20035;-93
2023/12/05 02:45:16;;;;;;;0.63;0.43;;;5.80;99.90;;;;;;4955772;28;20082;-93
2023/12/05 02:47:44;;;;;;;2.85;0.68;;;6.10;99.90;;;;;;4935867;29;20035;-93
2023/12/05 02:50:09;;;;;;;2.42;0.80;;;6.10;99.90;;;;;;4949846;29;20484;-93
2023/12/05 02:52:35;;;;;;;5.32;1.20;;;;;;;;;;4958500;29;20033;-91
2023/12/05 02:55:01;;;;;;;2.78;0.73;;;;;;;;;;4947728;29;20024;-92
2023/12/05 02:57:27;;;;;;;2.67;1.40;;;;;;;;;;4941186;29;20066;-92
2023/12/05 02:59:53;;;;;;;0.65;0.65;;;7.00;99.90;;;;;;4957023;29;20038;-93
2023/12/05 03:02:19;;;;;;;0.57;0.57;;;;;;;;;;4955522;28;20407;-92
2023/12/05 03:04:45;;;;;;;2.17;0.40;;;;;;;;;;4962834;28;20027;-93
2023/12/05 03:07:11;;;;;;;0.30;0.30;;;6.50;99.90;;;;;;4961060;28;20086;-91
2023/12/05 03:09:36;;;;;;;0.30;0.30;;;6.30;99.90;;;;;;4955620;29;20024;-93
2023/12/05 03:12:03;;;;;;;0.60;0.50;;;;;;;;;;4955233;29;20035;-93
2023/12/05 03:14:29;;;;;;;0.73;0.55;;;;;;;;;;4954748;29;20027;-92
2023/12/05 03:16:54;;;;;;;2.78;0.75;;;;;;;;;;4955714;29;20035;-93
2023/12/05 03:19:20;;;;;;;0.68;0.43;;;;;;;;;;4955497;29;20031;-93
2023/12/05 03:21:46;;;;;;;0.40;0.38;;;;;;;;;;4955064;29;20035;-93
2023/12/05 03:24:12;;;;;;;0.43;0.43;;;;;;;;;;4955622;29;20293;-94
2023/12/05 03:26:38;;;;;;;0.47;0.40;;;6.30;99.90;;;;;;4955031;29;20646;-93
2023/12/05 03:29:04;;;;;;;0.22;0.22;;;6.00;99.90;;;;;;4948797;29;20272;-93
2023/12/05 03:31:36;;;;;;;0.45;0.45;;;5.60;99.90;;;;;;4949212;29;20035;-93
2023/12/05 03:34:02;;;;;;;0.32;0.32;;;5.70;99.90;;;;;;4936934;29;20075;-92
2023/12/05 03:36:28;;;;;;;3.17;0.40;;;5.80;99.90;;;;;;4949413;28;20054;-92
2023/12/05 03:38:54;;;;;;;0.40;0.40;;;;;;;;;;4950340;29;20058;-93
2023/12/05 03:41:20;;;;;;;0.38;0.38;;;;;;;;;;4955006;29;20027;-92
2023/12/05 03:43:46;;;;;;;1.92;0.70;;;;;;;;;;4955156;28;20024;-92
2023/12/05 03:46:12;;;;;;;0.25;0.22;;;;;;;;;;4954557;29;20027;-92
2023/12/05 03:48:38;;;;;;;2.80;1.00;;;;;;;;;;4954760;29;20035;-92
2023/12/05 03:51:03;;;;;;;0.73;0.60;;;5.70;99.90;;;;;;4954579;29;20078;-93
2023/12/05 03:53:29;;;;;;;0.75;0.40;;;;;;;;;;4945866;29;20066;-92
2023/12/05 03:55:55;;;;;;;1.27;0.63;;;5.40;99.90;;;;;;4954047;29;20102;-92
2023/12/05 03:58:21;;;;;;;0.60;0.60;;;;;;;;;;4954848;29;20062;-93
2023/12/05 04:00:47;;;;;;;0.82;0.82;;;5.70;99.90;;;;;;4947186;29;20464;-93
2023/12/05 04:03:14;;;;;;;0.85;0.43;;;5.40;99.90;;;;;;4954364;29;20042;-93
2023/12/05 04:05:39;;;;;;;3.13;0.70;;;6.00;99.90;;;;;;4953681;28;20613;-91
2023/12/05 04:08:06;;;;;;;5.38;0.70;;;;;;;;;;4954406;29;20031;-92
2023/12/05 04:10:31;;;;;;;1.08;0.68;;;5.50;99.90;;;;;;4954857;29;20071;-92
2023/12/05 04:12:57;;;;;;;0.57;0.55;;;;;;;;;;4954496;29;20034;-92
2023/12/05 04:15:23;;;;;;;0.85;0.68;;;5.70;99.90;;;;;;4954450;29;20027;-91
2023/12/05 04:17:49;;;;;;;3.10;0.80;;;;;;;;;;4951603;29;20055;-92
2023/12/05 04:20:17;;;;;;;1.17;0.50;;;;;;;;;;4949434;29;20039;-93
2023/12/05 04:22:43;;;;;;;0.63;0.50;;;;;;;;;;4954358;29;20110;-92
2023/12/05 04:25:09;;;;;;;0.93;0.93;;;;;;;;;;4954184;29;20515;-92
2023/12/05 04:27:35;;;;;;;0.30;0.30;;;;;;;;;;4953489;29;20063;-92
2023/12/05 04:30:01;;;;;;;4.03;0.77;;;;;;;;;;4949738;29;20122;-92
2023/12/05 04:32:27;;;;;;;11.90;1.60;;;;;;;;;;4954104;29;20027;-92
2023/12/05 04:34:53;;;;;;;2.58;0.93;;;;;;;;;;4953895;29;20507;-93
2023/12/05 04:37:19;;;;;;;1.58;0.75;;;;;;;;;;4954217;28;20027;-93
2023/12/05 04:39:45;;;;;;;3.60;0.85;;;;;;;;;;4941222;29;20031;-92
2023/12/05 04:42:11;;;;;;;0.20;0.20;;;;;;;;;;4954381;29;20023;-93
2023/12/05 04:44:37;;;;;;;4.70;0.68;;;;;;;;;;4950205;29;20035;-92
2023/12/05 04:47:03;;;;;;;2.63;1.45;;;;;;;;;;4942059;29;20046;-93
2023/12/05 04:49:30;;;;;;;2.70;1.42;;;;;;;;;;4953300;29;20039;-93
2023/12/05 04:51:56;;;;;;;9.27;1.27;;;4.60;99.90;;;;;;4955808;29;20031;-92
2023/12/05 04:54:22;;;;;;;1.85;1.30;;;;;;;;;;4942201;29;20028;-92
2023/12/05 04:56:48;;;;;;;3.65;0.80;;;;;;;;;;4954138;29;20023;-92
2023/12/05 04:59:13;;;;;;;1.13;0.70;;;4.50;99.90;;;;;;4947893;29;20103;-92
2023/12/05 05:01:40;;;;;;;3.47;0.65;;;;;;;;;;4948136;29;20031;-92
2023/12/05 05:04:06;;;;;;;1.95;1.65;;;;;;;;;;4954238;28;20030;-92
2023/12/05 05:06:32;;;;;;;10.85;1.45;;;;;;;;;;4953566;29;20448;-92
2023/12/05 05:08:57;;;;;;;2.63;0.60;;;;;;;;;;4954134;29;20023;-92
2023/12/05 05:11:23;;;;;;;1.02;0.60;;;;;;;;;;4954039;29;20555;-92
2023/12/05 05:13:49;;;;;;;4.97;0.60;;;;;;;;;;4954060;29;20031;-91
2023/12/05 05:16:15;;;;;;;1.58;0.68;;;;;;;;;;4936282;29;20015;-92
2023/12/05 05:18:41;;;;;;;0.50;0.40;;;;;;;;;;4942313;29;20042;-90
2023/12/05 05:21:08;;;;;;;1.58;0.80;;;;;;;;;;4959109;29;20023;-90
2023/12/05 05:23:33;;;;;;;0.60;0.60;;;3.70;99.90;;;;;;4956226;29;20451;-91
2023/12/05 05:25:59;;;;;;;1.30;0.90;;;;;;;;;;4954672;29;20033;-92
2023/12/05 05:28:25;;;;;;;3.20;0.60;;;3.90;99.90;;;;;;4953536;29;20051;-92
2023/12/05 05:30:54;;;;;;;2.80;1.00;;;;;;;;;;4953566;29;20499;-93
2023/12/05 05:33:21;;;;;;;0.57;0.57;;;3.80;96.00;;;;;;4953436;29;20055;-92
2023/12/05 05:35:47;;;;;;;2.55;0.60;;;;;;;;;;4933260;29;20527;-92
2023/12/05 05:38:12;;;;;;;0.70;0.70;;;3.40;98.70;;;;;;4936004;29;20019;-92
2023/12/05 05:40:42;;;;;;;0.70;0.70;;;3.50;96.20;;;;;;4936342;29;20034;-92
2023/12/05 05:43:08;;;;;;;0.70;0.60;;;3.40;99.90;;;;;;4953772;29;20090;-92
2023/12/05 05:45:34;;;;;;;2.72;1.05;;;;;;;;;;4953410;29;20058;-92
2023/12/05 05:48:00;;;;;;;4.70;0.90;;;3.20;97.80;;;;;;4952868;29;20035;-91
2023/12/05 05:50:26;;;;;;;1.30;0.50;;;;;;;;;;4953032;29;20041;-92
2023/12/05 05:52:52;;;;;;;1.95;0.95;;;;;;;;;;4952849;29;20110;-91
2023/12/05 05:55:18;;;;;;;2.88;1.42;;;;;;;;;;4947157;29;20073;-92
2023/12/05 05:57:44;;;;;;;4.72;0.98;;;3.20;96.90;;;;;;4952951;29;20035;-92
2023/12/05 06:00:11;;;;;;;3.85;0.82;;;3.90;99.90;;;;;;4952402;29;20031;-92
2023/12/05 06:02:37;;;;;;;2.58;0.55;;;3.20;99.90;;;;;;4952947;29;20051;-92
2023/12/05 06:05:04;;;;;;;1.00;0.88;;;3.40;99.90;;;;;;4953456;28;20039;-92
2023/12/05 06:07:30;;;;;;;1.55;0.80;;;3.50;99.90;;;;;;4953910;28;20039;-93
2023/12/05 06:09:56;;;;;;;1.27;0.88;;;3.60;99.90;;;;;;4953020;29;20024;-92
2023/12/05 06:12:22;;;;;;;22.48;1.40;;;;;;;;;;4953835;29;20038;-93
2023/12/05 06:14:49;;;;;;;5.50;1.33;;;;;;;;;;4957848;29;20023;-87
2023/12/05 06:17:15;;;;;;;0.73;0.73;;;;;;;;;;4950172;29;20046;-87
2023/12/05 06:19:41;;;;;;;7.93;1.42;;;3.40;99.90;;;;;;4953064;29;20034;-86
2023/12/05 06:22:07;;;;;;;4.80;1.40;;;;;;;;;;4952652;29;20118;-87
2023/12/05 06:24:33;;;;;;;5.55;1.30;;;;;;;;;;4952780;29;20033;-86
2023/12/05 06:26:59;;;;;;;5.32;1.55;;;;;;;;;;4952496;29;20035;-87
2023/12/05 06:29:25;;;;;;;2.05;0.98;;;3.20;99.90;;;;;;4951527;29;20043;-87
2023/12/05 06:31:51;;;;;;;1.35;1.05;;;;;;;;;;4918932;29;20444;-87
2023/12/05 06:34:17;;;;;;;1.08;0.68;;;;;;;;;;4935732;29;20031;-87
2023/12/05 06:36:43;;;;;;;0.77;0.77;;;;;;;;;;4952458;28;20121;-86
2023/12/05 06:39:09;;;;;;;9.95;0.80;;;;;;;;;;4951395;29;20130;-82
2023/12/05 06:41:36;;;;;;;4.63;1.50;;;2.90;99.90;;;;;;4954978;29;20085;-88
2023/12/05 06:44:02;;;;;;;2.55;0.95;;;3.30;99.90;;;;;;4952570;29;20125;-89
2023/12/05 06:46:28;;;;;;;5.90;1.05;;;;;;;;;;4952419;29;20043;-89
2023/12/05 06:48:54;;;;;;;1.58;0.95;;;;;;;;;;4952386;29;20472;-89
2023/12/05 06:51:21;;;;;;;3.47;0.85;;;;;;;;;;4952849;29;20019;-89
2023/12/05 06:53:47;;;;;;;3.00;1.70;;;;;;;;;;4953083;29;20472;-87
2023/12/05 06:56:15;;;;;;;4.82;1.95;;;3.50;97.70;;;;;;4951215;29;20842;-89
2023/12/05 06:58:41;;;;;;;7.93;3.28;;;3.60;96.10;;;;;;4952729;29;20027;-89
2023/12/05 07:01:07;;;;;;;28.65;11.60;;;3.40;97.20;;;;;;4952603;29;20094;-89
2023/12/05 07:03:33;;;;;;;6.65;3.85;;;3.50;97.90;;;;;;4949752;29;20496;-89
2023/12/05 07:05:59;;;;;;;1.48;1.38;;;;;;;;;;4952762;28;20032;-89
2023/12/05 07:08:26;;;;;;;10.27;2.58;;;3.60;99.90;;;;;;4950023;29;20500;-89
2023/12/05 07:10:52;;;;;;;11.00;1.65;;;;;;;;;;4949992;29;20396;-82
2023/12/05 07:13:18;;;;;;;7.57;2.75;;;;;;;;;;4951742;29;20377;-80
2023/12/05 07:15:45;;;;;;;4.70;1.80;;;;;;;;;;4943551;29;20023;-84
2023/12/05 07:18:11;;;;;;;4.22;2.10;;;;;;;;;;4933809;29;20550;-84
2023/12/05 07:20:37;;;;;;;3.30;1.45;;;;;;;;;;4949822;29;20039;-85
2023/12/05 07:23:03;;;;;;;3.97;1.52;;;;;;;;;;4951913;29;20027;-84
2023/12/05 07:25:29;;;;;;;6.47;2.08;;;;;;;;;;4952040;29;20023;-83
2023/12/05 07:27:55;;;;;;;4.45;2.58;;;;;;;;;;4951419;29;20174;-85
2023/12/05 07:30:21;;;;;;;2.28;1.33;;;;;;;;;;4951097;29;20420;-84
2023/12/05 07:32:47;;;;;;;1.92;1.27;;;;;;;;;;4951805;29;20039;-84
2023/12/05 07:35:13;;;;;;;2.75;2.30;;;;;;;;;;4951640;28;20019;-83
2023/12/05 07:37:39;;;;;;;1.88;1.48;;;;;;;;;;4944255;29;20028;-83
2023/12/05 07:40:08;;;;;;;2.78;1.25;;;4.50;94.10;;;;;;4952244;29;20170;-83
2023/12/05 07:42:34;;;;;;;9.75;2.55;;;;;;;;;;4951516;29;20027;-83
2023/12/05 07:45:01;;;;;;;7.68;1.88;;;;;;;;;;4923864;29;20043;-83
2023/12/05 07:47:27;;;;;;;8.80;1.40;;;4.80;92.20;;;;;;4943565;29;20444;-83
2023/12/05 07:49:53;;;;;;;1.33;0.70;;;;;;;;;;4951106;29;20027;-83
2023/12/05 07:52:19;;;;;;;1.38;1.05;;;4.70;90.90;;;;;;4934359;29;20038;-83
2023/12/05 07:54:45;;;;;;;10.50;1.23;;;4.80;91.40;;;;;;4951694;29;20039;-83
2023/12/05 07:57:11;;;;;;;6.63;0.93;;;4.70;96.80;;;;;;4950816;29;20066;-83
2023/12/05 07:59:37;;;;;;;14.85;1.30;;;;;;;;;;4951173;29;20064;-83
2023/12/05 08:02:03;;;;;;;3.33;1.63;;;;;;;;;;4951574;29;20019;-83
2023/12/05 08:04:29;;;;;;;2.03;1.05;;;;;;;;;;4950860;28;20023;-83
2023/12/05 08:06:55;;;;;;;5.40;1.30;;;;;;;;;;4950684;29;20033;-83
2023/12/05 08:09:21;;;;;;;0.93;0.93;;;;;;;;;;4950746;29;20030;-83
2023/12/05 08:11:47;;;;;;;6.55;1.50;;;;;;;;;;4951154;29;20045;-83
2023/12/05 08:14:13;;;;;;;2.45;1.90;;;;;;;;;;4949714;29;20452;-81
2023/12/05 08:16:41;;;;;;;2.55;1.42;;;;;;;;;;4951096;29;20031;-86
2023/12/05 08:19:08;;;;;;;2.38;1.52;;;;;;;;;;4951076;29;20492;-86
2023/12/05 08:21:33;;;;;;;7.00;1.88;;;5.60;95.50;;;;;;4950975;29;20563;-77
2023/12/05 08:23:59;;;;;;;14.25;2.78;;;;;;;;;;4951234;29;20039;-86
2023/12/05 08:26:25;;;;;;;5.85;1.95;;;;;;;;;;4949399;29;20035;-86
2023/12/05 08:28:51;;;;;;;8.77;2.10;;;;;;;;;;4933365;29;20102;-86
2023/12/05 08:31:17;;;;;;;4.05;2.28;;;;;;;;;;4950771;28;20035;-86
2023/12/05 08:33:43;;;;;;;5.90;3.50;;;;;;;;;;4951610;29;20031;-86
2023/12/05 08:36:09;;;;;;;8.35;3.28;;;;;;;;;;4951012;28;20035;-86
2023/12/05 08:38:35;;;;;;;10.27;2.17;;;8.30;92.00;;;;;;4951391;29;20057;-86
2023/12/05 08:41:01;;;;;;;3.08;2.55;;;;;;;;;;4951574;29;20075;-87
2023/12/05 08:43:27;;;;;;;4.40;2.25;;;;;;;;;;4947357;29;20670;-86
2023/12/05 08:45:53;;;;;;;6.45;2.78;;;;;;;;;;4949798;29;20073;-86
2023/12/05 08:48:19;;;;;;;8.13;4.35;;;;;;;;;;4951467;29;20035;-86
2023/12/05 08:50:46;;;;;;;21.55;5.13;;;;;;;;;;4951138;29;20019;-86
2023/12/05 08:53:12;;;;;;;8.15;3.65;;;6.20;93.50;;;;;;4951549;29;20034;-86
2023/12/05 08:55:39;;;;;;;20.85;9.48;;;;;;;;;;4950443;29;20031;-82
2023/12/05 08:58:05;;;;;;;;;;;6.20;81.60;;;;;;4939412;29;20114;-88
2023/12/05 09:00:31;;;;;;;16.42;6.30;;;;;;;;;;4951472;29;19997;-87
2023/12/05 09:02:59;;;;;;;7.43;3.53;;;;;;;;;;4950251;29;20384;-87
2023/12/05 09:05:25;;;;;;;9.13;3.17;;;;;;;;;;4951761;28;20487;-87
2023/12/05 09:07:51;;;;;;;74.07;23.05;;;;;;;;;;4939829;29;20070;-83
2023/12/05 09:10:17;;;;;;;42.95;19.02;;;;;;;;;;4951267;29;20134;-86
2023/12/05 09:12:43;;;;;;;18.63;8.73;;;;;;;;;;4950668;29;20027;-86
2023/12/05 09:15:09;;;;;;;8.05;3.67;;;;;;;;;;4949813;29;20042;-86
2023/12/05 09:17:35;;;;;;;6.32;2.47;;;;;;;;;;4950229;29;20023;-86
2023/12/05 09:20:00;;;;;;;5.15;3.20;;;9.00;77.80;;;;;;4942646;29;20039;-86
2023/12/05 09:22:27;;;;;;;6.50;3.90;;;;;;;;;;4951063;29;20035;-87
2023/12/05 09:24:53;;;;;;;8.70;4.82;;;;;;;;;;4950742;29;20066;-86
2023/12/05 09:27:19;;;;;;;23.02;7.22;;;;;;;;;;4950293;29;20074;-86
2023/12/05 09:29:46;;;;;;;12.23;5.20;;;;;;;;;;4950272;29;20047;-87
2023/12/05 09:32:11;;;;;;;8.02;3.17;;;15.40;64.50;;;;;;4950891;29;20046;-86
2023/12/05 09:34:38;;;;;;;6.70;3.13;;;;;;;;;;4951103;29;20058;-81
2023/12/05 09:37:04;;;;;;;13.98;5.53;;;;;;;;;;4949997;28;20023;-80
2023/12/05 09:39:31;;;;;;;8.23;4.43;;;;;;;;;;4950106;29;20086;-81
2023/12/05 09:42:03;;;;;;;6.82;3.70;;;14.60;58.50;;;;;;4953357;28;20023;-87
2023/12/05 09:44:32;;;;;;;6.63;4.43;;;18.10;56.10;;;;;;4954535;29;20087;-88
2023/12/05 09:47:01;;;;;;;4.47;2.47;;;;;;;;;;4944970;29;20035;-88
2023/12/05 09:49:28;;;;;;;3.95;1.92;;;;;;;;;;4936642;29;20027;-87
2023/12/05 09:51:54;;;;;;;13.18;1.85;;;;;;;;;;4936911;29;20027;-87
2023/12/05 09:54:21;;;;;;;5.10;2.35;;;14.10;55.60;;;;;;4954427;29;20495;-87
2023/12/05 09:56:48;;;;;;;3.03;2.28;;;;;;;;;;4949581;29;20036;-88
2023/12/05 09:59:16;;;;;;;2.22;1.58;;;15.70;72.40;;;;;;4948548;29;20035;-88
2023/12/05 10:01:44;;;;;;;4.85;1.95;;;18.50;55.60;;;;;;4954382;29;20031;-87
2023/12/05 10:04:11;;;;;;;3.15;2.40;;;19.90;57.80;;;;;;4949925;28;20111;-88
2023/12/05 10:06:37;;;;;;;5.03;1.77;;;;;;;;;;4954360;29;20535;-87
2023/12/05 10:09:06;;;;;;;5.65;2.38;;;18.50;65.40;;;;;;4944610;29;20028;-87
2023/12/05 10:11:33;;;;;;;4.72;1.70;;;16.50;49.20;;;;;;4954476;29;20408;-88
2023/12/05 10:13:59;;;;;;;4.38;1.58;;;;;;;;;;4955032;29;20042;-86
2023/12/05 10:16:27;;;;;;;1.67;1.40;;;14.10;52.20;;;;;;4954297;29;20031;-88
2023/12/05 10:18:52;;;;;;;;;;;14.10;52.70;;;;;;4954718;29;20046;-88
2023/12/05 10:21:18;;;;;;;3.17;0.93;;;11.80;74.40;;;;;;4954154;29;19910;-87
2023/12/05 10:23:44;;;;;;;1.00;0.93;;;10.90;74.30;;;;;;4936291;29;20113;-87
2023/12/05 10:26:10;;;;;;;1.70;0.85;;;;;;;;;;4954032;29;20074;-87
2023/12/05 10:28:50;;;;;;;1.00;0.98;;;10.10;77.30;;;;;;4953448;29;20122;-88
2023/12/05 10:31:16;;;;;;;4.78;1.27;;;11.00;77.80;;;;;;4953789;29;20035;-87
2023/12/05 10:33:42;;;;;;;4.18;1.65;;;;;;;;;;4953320;29;20027;-86
2023/12/05 10:36:11;;;;;;;7.53;1.40;;;11.30;76.10;;;;;;4952124;28;20419;-86
2023/12/05 10:38:37;;;;;;;2.08;1.15;;;;;;;;;;4953962;29;20015;-88
2023/12/05 10:41:03;;;;;;;1.92;1.13;;;12.40;70.20;;;;;;4946071;29;20111;-87
2023/12/05 10:43:29;;;;;;;3.55;1.38;;;;;;;;;;4951792;29;20627;-87
2023/12/05 10:45:57;;;;;;;14.65;2.75;;;16.20;50.00;;;;;;4950500;29;20126;-88
2023/12/05 10:48:25;;;;;;;3.75;2.45;;;19.40;48.90;;;;;;4953741;29;20023;-88
2023/12/05 10:50:51;;;;;;;2.22;2.03;;;22.40;60.00;;;;;;4953311;29;20062;-89
2023/12/05 10:53:18;;;;;;;1.50;1.40;;;;;;;;;;4953551;28;20031;-88
2023/12/05 10:55:44;;;;;;;3.28;2.38;;;24.90;34.10;;;;;;4952407;29;20027;-88
2023/12/05 10:58:10;;;;;;;1.52;1.38;;;25.60;41.60;;;;;;4951030;29;20093;-88
2023/12/05 11:00:37;;;;;;;4.40;1.60;;;;;;;;;;4946678;29;20500;-89
2023/12/05 11:03:03;;;;;;;4.60;1.08;;;;;;;;;;4951681;29;21432;-88
2023/12/05 11:05:31;;;;;;;2.78;1.55;;;23.60;33.50;;;;;;4952835;29;20023;-89
2023/12/05 11:07:57;;;;;;;3.63;1.20;;;23.40;38.10;;;;;;4950472;29;20066;-89
2023/12/05 11:10:25;;;;;;;1.33;1.27;;;23.50;47.70;;;;;;4953124;29;20050;-88
2023/12/05 11:12:52;;;;;;;1.02;1.00;;;23.10;34.20;;;;;;4952989;29;20027;-89
2023/12/05 11:15:24;;;;;;;3.55;0.98;;;23.30;34.80;;;;;;4953203;29;20035;-81
2023/12/05 11:18:04;;;;;;;3.92;1.23;;;22.90;47.20;;;;;;4952510;29;20070;-84
2023/12/05 11:20:30;;;;;;;2.10;0.60;;;;;;;;;;4952167;29;20031;-85
2023/12/05 11:23:09;;;;;;;0.32;0.32;;;20.60;49.40;;;;;;4951346;29;20031;-83
2023/12/05 11:25:56;;;;;;;2.65;1.40;;;19.40;35.90;;;;;;4952042;29;20027;-83
2023/12/05 11:28:47;;;;;;;2.17;0.80;;;17.70;35.80;;;;;;4951602;29;20043;-83
2023/12/05 11:31:41;;;;;;;0.95;0.60;;;16.40;49.30;;;;;;4942405;29;20033;-84
2023/12/05 11:34:23;;;;;;;2.92;0.90;;;15.50;40.10;;;;;;4952033;29;20074;-83
2023/12/05 11:37:13;;;;;;;2.08;1.35;;;14.20;39.80;;;;;;4951408;28;20031;-83
2023/12/05 11:39:39;;;;;;;2.33;0.85;;;12.80;42.50;;;;;;4952037;29;20065;-83
2023/12/05 11:42:09;;;;;;;2.35;1.30;;;12.20;57.60;;;;;;4951519;29;20031;-83
2023/12/05 11:44:36;;;;;;;1.20;1.15;;;13.10;44.70;;;;;;4951003;29;20036;-82
2023/12/05 11:47:06;;;;;;;1.98;1.17;;;;;;;;;;4939967;29;20047;-87
2023/12/05 11:49:46;;;;;;;2.60;1.13;;;13.40;44.00;;;;;;4951179;29;20035;-86
2023/12/05 11:52:12;;;;;;;5.45;0.85;;;;;;;;;;4941988;29;20035;-87
2023/12/05 11:54:44;;;;;;;1.45;0.80;;;13.80;43.60;;;;;;4951814;29;20054;-87
2023/12/05 11:57:14;;;;;;;1.05;0.60;;;13.40;58.20;;;;;;4951306;29;20035;-86
2023/12/05 11:59:41;;;;;;;2.33;0.60;;;13.20;42.00;;;;;;4951803;29;20043;-88
2023/12/05 12:02:08;;;;;;;4.72;0.77;;;12.50;46.80;;;;;;4952445;29;20023;-86
2023/12/05 12:04:34;;;;;;;1.20;0.80;;;;;;;;;;4950652;28;20082;-86
2023/12/05 12:07:00;;;;;;;0.60;0.60;;;;;;;;;;4951179;29;20035;-85
2023/12/05 12:09:26;;;;;;;2.80;1.10;;;;;;;;;;4950116;29;20471;-86
2023/12/05 12:11:53;;;;;;;1.40;1.30;;;12.50;44.40;;;;;;4951014;29;20035;-88
2023/12/05 12:14:19;;;;;;;1.40;1.27;;;;;;;;;;4951726;29;20038;-89
2023/12/05 12:16:48;;;;;;;4.38;1.00;;;13.10;42.50;;;;;;4951353;29;20031;-89
2023/12/05 12:19:15;;;;;;;0.70;0.60;;;13.30;41.20;;;;;;4951230;29;20512;-88
2023/12/05 12:21:44;;;;;;;1.08;0.90;;;13.70;41.10;;;;;;4952435;29;20118;-89
2023/12/05 12:24:21;;;;;;;0.70;0.70;;;13.80;40.00;;;;;;4951288;29;20110;-85
2023/12/05 12:26:53;;;;;;;4.18;1.50;;;13.40;39.80;;;;;;4950838;29;20078;-88
2023/12/05 12:29:19;;;;;;;2.65;1.58;;;;;;;;;;4951375;29;20051;-87
2023/12/05 12:31:45;;;;;;;5.35;2.88;;;;;;;;;;4951086;29;20031;-88
2023/12/05 12:34:26;;;;;;;3.28;1.20;;;12.10;59.60;;;;;;4951337;29;20058;-87
2023/12/05 12:36:52;;;;;;;4.20;1.80;;;;;;;;;;4952859;28;20034;-89
2023/12/05 12:39:19;;;;;;;1.40;1.02;;;13.10;42.40;;;;;;4951536;29;20102;-85
2023/12/05 12:41:48;;;;;;;1.10;1.00;;;13.80;43.40;;;;;;4950838;29;20522;-84
2023/12/05 12:44:16;;;;;;;1.38;1.27;;;13.80;40.60;;;;;;4947731;29;20027;-89
2023/12/05 12:46:42;;;;;;;2.13;1.33;;;14.00;57.20;;;;;;4931379;29;20151;-86
2023/12/05 12:49:08;;;;;;;1.85;0.90;;;13.70;41.50;;;;;;4933706;29;20467;-85
2023/12/05 12:51:34;;;;;;;1.85;1.70;;;;;;;;;;4934440;29;20035;-84
2023/12/05 12:54:05;;;;;;;5.32;2.42;;;;;;;;;;4950647;29;20117;-85
2023/12/05 12:56:32;;;;;;;2.53;1.05;;;13.70;42.00;;;;;;4950628;29;20114;-80
2023/12/05 12:59:02;;;;;;;0.90;0.90;;;13.60;39.50;;;;;;4933308;29;20424;-84
2023/12/05 13:01:29;;;;;;;2.70;1.73;;;13.50;40.10;;;;;;4947019;29;20407;-83
2023/12/05 13:03:55;;;;;;;0.80;0.80;;;;;;;;;;4948380;29;20031;-84
2023/12/05 13:06:21;;;;;;;3.50;1.53;;;;;;;;;;4950996;28;20302;-78
2023/12/05 13:08:48;;;;;;;1.40;1.27;;;11.90;42.20;;;;;;4932385;29;20556;-81
2023/12/05 13:11:15;;;;;;;1.88;1.02;;;;;;;;;;4950213;29;20559;-79
2023/12/05 13:13:41;;;;;;;5.00;1.57;;;;;;;;;;4950696;29;20023;-80
2023/12/05 13:16:07;;;;;;;2.35;1.30;;;13.00;51.30;;;;;;4949698;28;20794;-83
2023/12/05 13:18:59;;;;;;;4.22;1.77;;;13.70;58.90;;;;;;4954186;29;20023;-82
2023/12/05 13:21:32;;;;;;;3.15;1.30;;;13.40;43.20;;;;;;4942252;29;20039;-85
2023/12/05 13:23:58;;;;;;;1.77;1.40;;;;;;;;;;4954937;29;20023;-82
2023/12/05 13:26:24;;;;;;;2.53;1.13;;;;;;;;;;4954698;29;20431;-84
2023/12/05 13:28:50;;;;;;;1.05;0.80;;;;;;;;;;4950687;29;20043;-84
2023/12/05 13:31:17;;;;;;;1.80;0.88;;;;;;;;;;4954701;29;20034;-83
2023/12/05 13:33:43;;;;;;;1.45;1.30;;;11.60;41.10;;;;;;4952972;29;20451;-81
2023/12/05 13:36:09;;;;;;;5.10;2.15;;;11.10;42.00;;;;;;4952958;28;20062;-85
2023/12/05 13:38:35;;;;;;;2.85;1.40;;;;;;;;;;4953913;29;20465;-84
2023/12/05 13:41:01;;;;;;;4.32;1.88;;;;;;;;;;4954271;29;20098;-86
2023/12/05 13:43:27;;;;;;;1.75;1.58;;;;;;;;;;4954550;29;20030;-85
2023/12/05 13:45:53;;;;;;;1.65;0.95;;;;;;;;;;4947898;29;20012;-84
2023/12/05 13:48:19;;;;;;;1.85;0.98;;;;;;;;;;4954047;29;20090;-84
2023/12/05 13:50:45;;;;;;;1.33;1.23;;;;;;;;;;4954701;29;20023;-85
2023/12/05 13:53:11;;;;;;;6.47;1.33;;;;;;;;;;4951504;29;20028;-85
2023/12/05 13:55:37;;;;;;;6.53;1.35;;;;;;;;;;4954088;29;20471;-84